Latest Weather Observations for North Head

IDN60801

Issued at 7:33 am EST Saturday 30 July 2016 (issued every 30 minutes, with the page automatically refreshed every 10 minutes)

About weather observations | Map of weather stations | Latest weather observations for NSW | Other Formats
Station Details ID: 066197 Name: NORTH HEAD Lat: -33.82 Lon: 151.30 Height: 90.0 m
Data from the previous 72 hours. | See also: Recent months for locations in New South Wales
Date/Time
EST
Temp
°C
App
Temp
°C
Dew
Point
°C
Rel
Hum
%
Delta-T
°C
Wind Press
QNH
hPa
Press
MSL
hPa
Rain since
9am
mm
Dir  Spd
km/h
Gust
km/h
Spd
kts
Gust
kts
30/07:30am - - - - - W 17 24 9 13 - - -
30/07:00am - - - - - W 19 28 10 15 - - -
30/06:30am - - - - - W 17 24 9 13 - - -
30/06:00am - - - - - W 19 24 10 13 - - -
30/05:30am - - - - - W 17 24 9 13 - - -
30/05:00am - - - - - W 17 24 9 13 - - -
30/04:30am - - - - - W 17 24 9 13 - - -
30/04:00am - - - - - W 19 28 10 15 - - -
30/03:30am - - - - - W 19 28 10 15 - - -
30/03:00am - - - - - W 19 26 10 14 - - -
30/02:30am - - - - - W 19 26 10 14 - - -
30/02:00am - - - - - W 19 26 10 14 - - -
30/01:30am - - - - - W 17 28 9 15 - - -
30/01:00am - - - - - W 20 30 11 16 - - -
30/12:30am - - - - - W 19 30 10 16 - - -
30/12:00am - - - - - W 20 32 11 17 - - -
 
Date/Time
EST
Temp
°C
App
Temp
°C
Dew
Point
°C
Rel
Hum
%
Delta-T
°C
Wind Press
QNH
hPa
Press
MSL
hPa
Rain since
9am
mm
Dir  Spd
km/h
Gust
km/h
Spd
kts
Gust
kts
29/11:30pm - - - - - W 22 30 12 16 - - -
29/11:00pm - - - - - W 19 28 10 15 - - -
29/10:30pm - - - - - WSW 22 30 12 16 - - -
29/10:00pm - - - - - WSW 20 33 11 18 - - -
29/09:30pm - - - - - WSW 19 28 10 15 - - -
29/09:00pm - - - - - WSW 19 33 10 18 - - -
29/08:30pm - - - - - WSW 22 33 12 18 - - -
29/08:00pm - - - - - WSW 22 35 12 19 - - -
29/07:30pm - - - - - WSW 20 32 11 17 - - -
29/07:00pm - - - - - WSW 17 24 9 13 - - -
29/06:30pm - - - - - WSW 26 39 14 21 - - -
29/06:00pm - - - - - WSW 19 32 10 17 - - -
29/05:30pm - - - - - W 13 20 7 11 - - -
29/05:00pm - - - - - W 13 19 7 10 - - -
29/04:30pm - - - - - W 7 13 4 7 - - -
29/04:00pm - - - - - WNW 7 11 4 6 - - -
29/03:30pm - - - - - WNW 9 15 5 8 - - -
29/03:00pm - - - - - NNE 7 9 4 5 - - -
29/02:30pm - - - - - ENE 7 11 4 6 - - -
29/02:00pm - - - - - E 7 11 4 6 - - -
29/01:30pm - - - - - SSW 7 9 4 5 - - -
29/01:00pm - - - - - SSW 7 11 4 6 - - -
29/12:30pm - - - - - SSW 7 11 4 6 - - -
29/12:00pm - - - - - W 7 13 4 7 - - -
29/11:30am - - - - - W 9 15 5 8 - - -
29/11:00am - - - - - WNW 11 17 6 9 - - -
29/10:30am - - - - - WNW 15 20 8 11 - - -
29/10:00am - - - - - WNW 17 20 9 11 - - -
29/09:30am - - - - - W 22 32 12 17 - - -
29/09:00am - - - - - WNW 19 22 10 12 - - -
29/08:30am - - - - - W 19 28 10 15 - - -
29/08:00am - - - - - W 17 22 9 12 - - -
29/07:30am - - - - - W 19 24 10 13 - - -
29/07:00am - - - - - W 17 24 9 13 - - -
29/06:30am - - - - - W 19 24 10 13 - - -
29/06:00am - - - - - W 19 26 10 14 - - -
29/05:30am - - - - - W 17 24 9 13 - - -
29/05:00am - - - - - W 19 24 10 13 - - -
29/04:30am - - - - - WNW 17 22 9 12 - - -
29/04:00am - - - - - W 19 26 10 14 - - -
29/03:30am - - - - - W 19 26 10 14 - - -
29/03:00am - - - - - W 19 26 10 14 - - -
29/02:30am - - - - - W 20 30 11 16 - - -
29/02:00am - - - - - W 20 28 11 15 - - -
29/01:30am - - - - - W 19 26 10 14 - - -
29/01:00am - - - - - W 20 28 11 15 - - -
29/12:30am - - - - - W 20 28 11 15 - - -
29/12:00am - - - - - W 19 26 10 14 - - -
 
Date/Time
EST
Temp
°C
App
Temp
°C
Dew
Point
°C
Rel
Hum
%
Delta-T
°C
Wind Press
QNH
hPa
Press
MSL
hPa
Rain since
9am
mm
Dir  Spd
km/h
Gust
km/h
Spd
kts
Gust
kts
28/11:30pm - - - - - W 19 24 10 13 - - -
28/11:00pm - - - - - W 20 28 11 15 - - -
28/10:30pm - - - - - W 19 28 10 15 - - -
28/10:00pm - - - - - W 24 33 13 18 - - -
28/09:30pm - - - - - WSW 24 37 13 20 - - -
28/09:00pm - - - - - WSW 24 37 13 20 - - -
28/08:30pm - - - - - W 19 32 10 17 - - -
28/08:00pm - - - - - WSW 17 28 9 15 - - -
28/07:30pm - - - - - WSW 20 32 11 17 - - -
28/07:00pm - - - - - WSW 20 30 11 16 - - -
28/06:30pm - - - - - WSW 19 32 10 17 - - -
28/06:00pm - - - - - WSW 15 24 8 13 - - -
28/05:30pm - - - - - NW 11 11 6 6 - - -
28/05:00pm - - - - - WNW 7 11 4 6 - - -
28/04:30pm - - - - - WNW 9 15 5 8 - - -
28/04:00pm - - - - - WNW 11 15 6 8 - - -
28/03:30pm - - - - - WNW 9 17 5 9 - - -
28/03:00pm - - - - - W 7 15 4 8 - - -
28/02:30pm - - - - - WNW 7 17 4 9 - - -
28/02:00pm - - - - - WNW 7 13 4 7 - - -
28/01:30pm - - - - - WNW 11 19 6 10 - - -
28/01:00pm - - - - - NW 9 15 5 8 - - -
28/12:30pm - - - - - WNW 9 15 5 8 - - -
28/12:00pm - - - - - WNW 9 15 5 8 - - -
28/11:30am - - - - - WNW 11 17 6 9 - - -
28/11:00am - - - - - W 13 19 7 10 - - -
28/10:30am - - - - - W 17 22 9 12 - - -
28/10:00am - - - - - W 15 22 8 12 - - -
28/09:30am - - - - - W 15 22 8 12 - - -
28/09:00am - - - - - WSW 15 26 8 14 - - -
28/08:30am - - - - - W 17 28 9 15 - - -
28/08:00am - - - - - W 17 24 9 13 - - -
28/07:30am - - - - - W 17 22 9 12 - - -
28/07:00am - - - - - W 17 24 9 13 - - -
28/06:30am - - - - - W 13 20 7 11 - - -
28/06:00am - - - - - W 17 22 9 12 - - -
28/05:30am - - - - - W 17 22 9 12 - - -
28/05:00am - - - - - W 17 24 9 13 - - -
28/04:30am - - - - - W 19 26 10 14 - - -
28/04:00am - - - - - W 20 30 11 16 - - -
28/03:30am - - - - - W 19 30 10 16 - - -
28/03:00am - - - - - W 17 26 9 14 - - -
28/02:30am - - - - - W 17 28 9 15 - - -
28/02:00am - - - - - W 22 32 12 17 - - -
28/01:30am - - - - - W 20 30 11 16 - - -
28/01:00am - - - - - W 22 35 12 19 - - -
28/12:30am - - - - - W 24 32 13 17 - - -
28/12:00am - - - - - W 19 28 10 15 - - -
 
Date/Time
EST
Temp
°C
App
Temp
°C
Dew
Point
°C
Rel
Hum
%
Delta-T
°C
Wind Press
QNH
hPa
Press
MSL
hPa
Rain since
9am
mm
Dir  Spd
km/h
Gust
km/h
Spd
kts
Gust
kts
27/11:30pm - - - - - W 17 26 9 14 - - -
27/11:00pm - - - - - WNW 13 20 7 11 - - -
27/10:30pm - - - - - WNW 9 17 5 9 - - -
27/10:00pm - - - - - W 17 24 9 13 - - -
27/09:30pm - - - - - W 11 19 6 10 - - -
27/09:00pm - - - - - WNW 15 19 8 10 - - -
27/08:30pm - - - - - W 15 20 8 11 - - -
27/08:00pm - - - - - W 15 24 8 13 - - -
27/07:30pm - - - - - W 19 35 10 19 - - -
27/07:00pm - - - - - W 19 28 10 15 - - -
27/06:30pm - - - - - W 13 20 7 11 - - -
27/06:00pm - - - - - W 17 28 9 15 - - -
27/05:30pm - - - - - W 19 28 10 15 - - -
27/05:00pm - - - - - W 19 26 10 14 - - -
27/04:30pm - - - - - WSW 22 39 12 21 - - -
27/04:00pm - - - - - WSW 20 33 11 18 - - -
27/03:30pm - - - - - W 24 35 13 19 - - -
27/03:00pm - - - - - W 24 35 13 19 - - -
27/02:30pm - - - - - W 26 43 14 23 - - -
27/02:00pm - - - - - W 28 43 15 23 - - -
27/01:30pm - - - - - W 33 52 18 28 - - -
27/01:13pm - - - - - W 28 46 15 25 - - -
27/01:00pm - - - - - WNW 26 43 14 23 - - -
27/12:38pm - - - - - WNW 32 52 17 28 - - -
27/12:30pm - - - - - WNW 30 46 16 25 - - -
27/12:09pm - - - - - W 28 48 15 26 - - -
27/12:00pm - - - - - WNW 26 43 14 23 - - -
27/11:40am - - - - - WNW 30 50 16 27 - - -
27/11:30am - - - - - WNW 32 46 17 25 - - -
27/11:00am - - - - - WNW 32 52 17 28 - - -
27/10:30am - - - - - WNW 19 28 10 15 - - -
27/10:00am - - - - - NW 13 24 7 13 - - -
27/09:30am - - - - - WNW 20 32 11 17 - - -
27/09:00am - - - - - NW 20 30 11 16 - - -
27/08:30am - - - - - NW 19 33 10 18 - - -
27/08:00am - - - - - NW 22 35 12 19 - - -

Other Formats:

Comma delimited format used in spreadsheet applications
http://www.bom.gov.au/fwo/IDN60801/IDN60801.95768.axf

JavaScript Object Notation format (JSON) in row-major order
http://www.bom.gov.au/fwo/IDN60801/IDN60801.95768.json